Time;durP1;ratioP1;P1;durP2;ratioP2;P2;SDS_P1;SDS_P2;PMS_P1;PMS_P2;Temp;Humidity;BMP_temperature;BMP_pressure;BME280_temperature;BME280_humidity;BME280_pressure;Samples;Min_cycle;Max_cycle;Signal;HPM_P1;HPM_P2
2023/08/22 07:23:52;;;;;;;4.28;2.25;;;;;;;-145.79;58.37;77144.13;5407445;27;20188;-73
2023/08/22 07:26:23;;;;;;;2.90;1.98;;;;;;;-145.79;58.45;77139.88;5374101;27;20098;-74
2023/08/22 07:28:54;;;;;;;3.90;2.22;;;;;;;-145.79;58.79;77120.81;5373651;27;20084;-74
2023/08/22 07:31:26;;;;;;;6.70;3.47;;;;;;;-145.79;59.34;77110.22;5377973;27;20423;-75
2023/08/22 07:33:57;;;;;;;5.78;3.30;;;;;;;-145.79;59.46;77108.09;5377875;27;20073;-76
2023/08/22 07:36:28;;;;;;;5.68;3.63;;;;;;;-145.79;59.86;77084.78;5363009;27;20368;-75
2023/08/22 07:38:59;;;;;;;5.63;3.30;;;;;;;-145.79;59.77;77074.19;5376845;27;20034;-75
2023/08/22 07:41:31;;;;;;;8.23;4.95;;;;;;;-145.79;59.54;77072.06;5373588;27;20019;-75
2023/08/22 07:44:02;;;;;;;9.27;5.20;;;;;;;-145.79;59.82;77074.19;5372617;27;20019;-75
2023/08/22 07:46:34;;;;;;;7.40;4.95;;;;;;;-145.79;60.36;77063.59;5377281;27;20095;-75
2023/08/22 07:49:07;;;;;;;14.35;10.23;;;;;;;-145.79;60.73;77044.50;5378297;27;20034;-74
2023/08/22 07:51:38;;;;;;;39.22;35.40;;;;;;;-145.79;60.20;77038.16;5374343;27;20039;-75
2023/08/22 07:54:09;;;;;;;9.85;7.68;;;;;;;-145.79;58.83;77033.91;5386301;27;20025;-74
2023/08/22 07:56:41;;;;;;;18.77;16.77;;;;;;;-145.79;58.76;77044.50;5374578;27;20407;-73
2023/08/22 07:59:12;;;;;;;10.55;6.78;;;;;;;-145.79;59.44;77042.38;5374552;27;20019;-74
2023/08/22 08:01:44;;;;;;;7.25;5.55;;;;;;;-145.79;59.54;77025.44;5377362;27;20042;-75
2023/08/22 08:04:16;;;;;;;9.85;4.85;;;;;;;-145.79;58.25;77021.19;5382548;27;20041;-74
2023/08/22 08:06:49;;;;;;;7.10;5.38;;;;;;;-145.79;58.57;77029.66;5384316;27;20053;-71
2023/08/22 08:09:20;;;;;;;9.25;5.28;;;;;;;-145.79;58.45;77025.44;5381472;27;20025;-70
2023/08/22 08:11:51;;;;;;;7.63;4.72;;;;;;;-145.79;58.26;77027.56;5381373;27;20027;-70
2023/08/22 08:14:23;;;;;;;7.85;5.18;;;;;;;-145.79;58.07;77016.94;5377548;27;20102;-70
2023/08/22 08:16:54;;;;;;;8.30;4.57;;;;;;;-145.79;57.85;77023.31;5383147;27;20026;-70
2023/08/22 08:19:26;;;;;;;9.40;4.93;;;;;;;-145.79;57.88;77019.06;5368907;27;20027;-72
2023/08/22 08:21:58;;;;;;;8.85;4.28;;;;;;;-145.79;58.26;77021.19;5384503;27;20046;-70
2023/08/22 08:24:29;;;;;;;8.85;4.60;;;;;;;-145.79;58.60;77019.06;5376949;27;20023;-69
2023/08/22 08:27:00;;;;;;;12.95;10.65;;;;;;;-145.79;58.55;77036.03;5376652;27;20029;-69
2023/08/22 08:29:32;;;;;;;6.63;5.07;;;;;;;-145.79;59.33;77025.44;5372170;27;20050;-69
2023/08/22 08:32:03;;;;;;;6.85;4.55;;;;;;;-145.79;60.12;77019.06;5373233;27;20019;-69
2023/08/22 08:34:35;;;;;;;8.25;4.97;;;;;;;-145.79;59.48;77025.44;5365469;27;20102;-71
2023/08/22 08:37:06;;;;;;;6.88;5.07;;;;;;;-145.79;59.49;77025.44;5360737;27;20027;-70
2023/08/22 08:39:38;;;;;;;5.75;3.72;;;;;;;-145.79;59.60;77004.25;5357678;27;20131;-70
2023/08/22 08:42:13;;;;;;;6.90;4.60;;;;;;;-145.79;59.43;77016.94;5367085;27;20015;-69
2023/08/22 08:44:45;;;;;;;8.98;4.93;;;;;;;-145.79;59.41;77008.47;5370575;27;20055;-69
2023/08/22 08:47:16;;;;;;;12.35;5.43;;;;;;;-145.79;58.60;77004.25;5361523;27;20157;-69
2023/08/22 08:49:48;;;;;;;7.22;5.43;;;;;;;-145.79;58.47;76991.53;5370106;27;20025;-69
2023/08/22 08:52:20;;;;;;;8.75;5.32;;;;;;;-145.79;58.45;76987.28;5351712;27;20042;-69
2023/08/22 08:54:52;;;;;;;6.50;5.07;;;;;;;-145.79;59.03;76983.03;5369694;27;20144;-69
2023/08/22 08:57:24;;;;;;;8.80;5.53;;;;;;;-145.79;58.90;76983.03;5363506;27;20019;-69
2023/08/22 08:59:55;;;;;;;7.82;5.05;;;;;;;-145.79;59.08;76987.28;5363251;27;20461;-69
2023/08/22 09:02:27;;;;;;;7.57;5.25;;;;;;;-145.79;58.76;76961.84;5360769;27;20023;-69
2023/08/22 09:04:58;;;;;;;8.20;4.32;;;;;;;-145.79;59.00;76966.09;5365390;27;20113;-70
2023/08/22 09:07:30;;;;;;;11.27;5.75;;;;;;;-145.79;58.62;76972.44;5356489;27;20012;-70
2023/08/22 09:10:02;;;;;;;8.15;5.00;;;;;;;-145.79;58.38;76976.69;5365488;27;20486;-70
2023/08/22 09:12:35;;;;;;;12.30;6.70;;;;;;;-145.79;58.83;76993.63;5357421;27;20076;-70
2023/08/22 09:15:09;;;;;;;6.43;5.15;;;;;;;-145.79;58.92;76974.56;5368866;27;20027;-70
2023/08/22 09:17:40;;;;;;;11.43;4.78;;;;;;;-145.79;59.52;76974.56;5367377;27;20067;-71
2023/08/22 09:20:12;;;;;;;9.32;6.18;;;;;;;-145.79;59.67;76974.56;5365731;27;20023;-70
2023/08/22 09:22:44;;;;;;;14.80;7.03;;;;;;;-145.79;59.41;76974.56;5356479;27;20156;-70
2023/08/22 09:25:16;;;;;;;10.27;7.35;;;;;;;-145.79;59.63;76963.97;5365644;27;20019;-71
2023/08/22 09:27:51;;;;;;;11.15;7.15;;;;;;;-145.79;59.49;76961.84;5364590;27;20030;-71
2023/08/22 09:30:24;;;;;;;8.35;6.60;;;;;;;-145.79;59.63;76959.72;5364286;27;20015;-70
2023/08/22 09:32:59;;;;;;;13.13;6.82;;;;;;;-145.79;60.14;76961.84;5365925;27;20027;-70
2023/08/22 09:35:32;;;;;;;9.80;7.68;;;;;;;-145.79;60.02;76963.97;5368761;27;20100;-70
2023/08/22 09:38:10;;;;;;;9.82;8.23;;;;;;;-145.79;60.56;76966.09;5351859;27;20062;-70
2023/08/22 09:40:55;;;;;;;10.27;8.15;;;;;;;-145.79;60.62;76957.59;5360755;27;20022;-70
2023/08/22 09:43:28;;;;;;;11.82;10.68;;;;;;;-145.79;60.77;76957.59;5355939;27;20062;-71
2023/08/22 09:46:01;;;;;;;11.65;8.18;;;;;;;-145.79;60.48;76947.00;5366436;27;20389;-71
2023/08/22 09:48:36;;;;;;;15.10;9.35;;;;;;;-145.79;60.24;76930.06;5360037;27;20026;-70
2023/08/22 09:51:09;;;;;;;11.93;7.93;;;;;;;-145.79;59.50;76921.59;5365498;27;20031;-70
2023/08/22 09:53:42;;;;;;;14.45;8.20;;;;;;;-145.79;59.00;76915.22;5359755;27;20058;-70
2023/08/22 09:56:13;;;;;;;11.02;6.60;;;;;;;-145.79;58.35;76917.34;5364808;27;20453;-68
2023/08/22 09:58:45;;;;;;;9.88;6.10;;;;;;;-145.79;58.07;76904.63;5355259;27;20047;-70
2023/08/22 10:01:16;;;;;;;13.57;7.18;;;;;;;-145.79;57.95;76904.63;5356349;27;20020;-71
2023/08/22 10:03:49;;;;;;;8.90;6.88;;;;;;;-145.79;57.43;76913.09;5359010;27;20034;-71
2023/08/22 10:06:28;;;;;;;10.23;6.78;;;;;;;-145.79;57.27;76915.22;5360575;27;20497;-69
2023/08/22 10:09:10;;;;;;;10.27;6.97;;;;;;;-145.79;56.76;76908.88;5365703;27;20023;-70
2023/08/22 10:11:53;;;;;;;8.68;5.55;;;;;;;-145.79;55.68;76896.16;5365995;27;20485;-70
2023/08/22 10:14:34;;;;;;;8.13;5.32;;;;;;;-145.79;55.50;76881.31;5356197;27;20058;-70
2023/08/22 10:17:10;;;;;;;12.52;7.25;;;;;;;-145.79;55.33;76898.25;5364175;27;20102;-70
2023/08/22 10:19:42;;;;;;;8.07;3.63;;;;;;;-145.79;54.03;76883.44;5355003;27;20027;-71
2023/08/22 10:22:16;;;;;;;6.03;3.45;;;;;;;-145.79;52.90;76860.13;5359308;27;20066;-70
2023/08/22 10:24:48;;;;;;;11.60;7.65;;;;;;;-145.79;51.16;76855.88;5357965;27;20027;-70
2023/08/22 10:27:19;;;;;;;4.40;2.65;;;;;;;-145.79;49.69;76877.06;5363318;27;20027;-70
2023/08/22 10:30:12;;;;;;;3.28;2.53;;;;;;;-145.79;50.53;76874.94;5363679;27;20019;-71
2023/08/22 10:33:04;;;;;;;4.20;2.35;;;;;;;-145.79;50.75;76868.59;5366364;27;20098;-70
2023/08/22 10:35:37;;;;;;;3.05;2.20;;;;;;;-145.79;49.95;76868.59;5355144;27;20011;-69
2023/08/22 10:38:18;;;;;;;5.47;2.30;;;;;;;-145.79;50.33;76858.00;5363790;27;20060;-70
2023/08/22 10:40:54;;;;;;;5.68;2.05;;;;;;;-145.79;49.82;76847.41;5354695;27;20035;-69
2023/08/22 10:43:38;;;;;;;7.05;2.30;;;;;;;-145.79;50.21;76813.50;5366730;27;20458;-72
2023/08/22 10:46:11;;;;;;;4.82;2.25;;;;;;;-145.79;48.74;76826.22;5359591;27;20120;-72
2023/08/22 10:48:44;;;;;;;5.88;2.45;;;;;;;-145.79;48.54;76807.13;5359715;27;20019;-75
2023/08/22 10:51:15;;;;;;;6.50;2.30;;;;;;;-145.79;48.35;76800.78;5367783;27;20038;-73
2023/08/22 10:53:47;;;;;;;7.47;2.47;;;;;;;-145.79;48.33;76796.53;5366957;27;20027;-73
2023/08/22 10:56:23;;;;;;;3.58;2.10;;;;;;;-145.79;48.26;76800.78;5353456;27;20226;-74
2023/08/22 10:58:59;;;;;;;5.32;2.58;;;;;;;-145.79;47.84;76792.31;5359828;27;20015;-74
2023/08/22 11:01:31;;;;;;;9.63;3.03;;;;;;;-145.79;48.31;76785.94;5342979;27;20038;-73
2023/08/22 11:04:04;;;;;;;4.95;2.88;;;;;;;-145.79;48.09;76794.41;5364178;27;20019;-72
2023/08/22 11:06:37;;;;;;;7.28;2.50;;;;;;;-145.79;48.34;76788.06;5363560;27;20495;-72
2023/08/22 11:09:11;;;;;;;6.25;2.95;;;;;;;-145.79;48.24;76779.59;5338073;27;20402;-71
2023/08/22 11:11:42;;;;;;;6.03;2.65;;;;;;;-145.79;47.86;76781.69;5354296;27;20038;-72
2023/08/22 11:14:13;;;;;;;4.80;2.13;;;;;;;-145.79;48.42;76783.81;5355556;27;20042;-73
2023/08/22 11:16:45;;;;;;;9.30;2.90;;;;;;;-145.79;48.55;76779.59;5365492;27;20027;-73
2023/08/22 11:19:17;;;;;;;5.10;1.70;;;;;;;-145.79;47.32;76754.16;5364887;27;20059;-73
2023/08/22 11:21:49;;;;;;;3.17;1.30;;;;;;;-145.79;45.27;76758.38;5364981;27;20133;-71
2023/08/22 11:24:24;;;;;;;3.47;1.85;;;;;;;-145.79;44.67;76769.00;5360959;27;20102;-73
2023/08/22 11:26:56;;;;;;;5.57;1.57;;;;;;;-145.79;44.82;76762.63;5355025;27;20394;-72
2023/08/22 11:29:28;;;;;;;1.80;1.20;;;;;;;-145.79;43.25;76783.81;5358902;27;20035;-72
2023/08/22 11:32:00;;;;;;;4.43;1.27;;;;;;;-145.79;43.85;76779.59;5363217;27;20046;-72
2023/08/22 11:34:31;;;;;;;3.15;1.40;;;;;;;-145.79;43.65;76783.81;5365424;27;20023;-72
2023/08/22 11:37:06;;;;;;;4.50;1.58;;;;;;;-145.79;42.20;76792.31;5363649;27;20026;-72
2023/08/22 11:39:37;;;;;;;3.65;1.50;;;;;;;-145.79;42.58;76796.53;5358556;27;20029;-73
2023/08/22 11:42:09;;;;;;;1.58;1.00;;;;;;;-145.79;41.04;76798.66;5364462;27;20109;-71
2023/08/22 11:45:07;;;;;;;7.60;2.30;;;;;;;-145.79;40.91;76796.53;5359429;27;20076;-71
2023/08/22 11:47:48;;;;;;;9.27;6.53;;;;;;;-145.79;40.53;76821.97;5358045;27;20393;-78
2023/08/22 11:50:23;;;;;;;4.53;2.47;;;;;;;-145.79;41.16;76817.72;5357110;27;20466;-78
2023/08/22 11:52:55;;;;;;;1.92;1.17;;;;;;;-145.79;40.78;76811.38;5366803;27;20031;-78
2023/08/22 11:55:28;;;;;;;1.48;0.80;;;;;;;-145.79;41.67;76811.38;5365819;27;20029;-79
2023/08/22 11:58:01;;;;;;;3.50;1.00;;;;;;;-145.79;41.64;76817.72;5366329;27;20035;-79
2023/08/22 12:00:34;;;;;;;2.45;1.00;;;;;;;-145.79;41.62;76819.84;5358647;27;20031;-78
2023/08/22 12:03:06;;;;;;;1.60;0.98;;;;;;;-145.79;41.83;76815.63;5367172;27;20029;-77
2023/08/22 12:05:48;;;;;;;3.83;1.38;;;;;;;-145.79;42.23;76821.97;5357375;27;20039;-78
2023/08/22 12:08:20;;;;;;;1.75;0.90;;;;;;;-145.79;42.22;76815.63;5359512;27;20046;-78
2023/08/22 12:10:53;;;;;;;3.35;0.90;;;;;;;-145.79;42.02;76821.97;5368760;27;20019;-78
2023/08/22 12:13:25;;;;;;;2.10;0.90;;;;;;;-145.79;42.27;76819.84;5370172;27;20070;-78
2023/08/22 12:15:56;;;;;;;1.50;0.80;;;;;;;-145.79;42.56;76821.97;5362499;27;20042;-78
2023/08/22 12:18:39;;;;;;;1.92;1.27;;;;;;;-145.79;42.71;76838.94;5363068;27;20019;-79
2023/08/22 12:21:10;;;;;;;3.20;1.30;;;;;;;-145.79;43.49;76830.44;5357155;27;20119;-77
2023/08/22 12:23:42;;;;;;;7.32;2.38;;;;;;;-145.79;43.92;76834.69;5364619;27;20122;-77
2023/08/22 12:26:13;;;;;;;4.18;2.40;;;;;;;-145.79;43.95;76830.44;5365093;27;20505;-76
2023/08/22 12:28:45;;;;;;;5.20;1.40;;;;;;;-145.79;44.43;76815.63;5360948;27;20022;-75
2023/08/22 12:31:21;;;;;;;4.57;2.67;;;;;;;-145.79;43.97;76826.22;5368522;27;20058;-80
2023/08/22 12:33:52;;;;;;;4.53;1.60;;;;;;;-145.79;44.36;76813.50;5361517;27;20470;-79
2023/08/22 12:36:24;;;;;;;4.43;2.10;;;;;;;-145.79;44.50;76826.22;5366160;27;20038;-74
2023/08/22 12:38:56;;;;;;;4.55;2.05;;;;;;;-145.79;44.72;76834.69;5358154;27;20031;-73
2023/08/22 12:41:27;;;;;;;5.30;1.85;;;;;;;-145.79;45.66;76834.69;5361023;27;20034;-78
2023/08/22 12:43:59;;;;;;;4.35;2.30;;;;;;;-145.79;45.72;76838.94;5368965;27;20501;-77
2023/08/22 12:46:32;;;;;;;7.20;2.33;;;;;;;-145.79;45.99;76834.69;5356322;27;20134;-75
2023/08/22 12:49:03;;;;;;;3.05;2.20;;;;;;;-145.79;45.97;76830.44;5357267;27;20027;-76
2023/08/22 12:51:35;;;;;;;6.25;2.83;;;;;;;-145.79;46.23;76828.31;5359812;27;20390;-75
2023/08/22 12:54:07;;;;;;;7.75;3.25;;;;;;;-145.79;46.61;76836.81;5361509;27;20405;-76
2023/08/22 12:56:38;;;;;;;7.03;3.10;;;;;;;-145.79;46.89;76849.53;5360369;27;20113;-72
2023/08/22 12:59:10;;;;;;;9.77;3.80;;;;;;;-145.79;47.00;76836.81;5367648;27;20029;-72
2023/08/22 13:01:41;;;;;;;6.95;3.67;;;;;;;-145.79;47.05;76830.44;5360779;27;20099;-70
2023/08/22 13:04:13;;;;;;;7.32;3.38;;;;;;;-145.79;46.78;76830.44;5361084;27;20023;-70
2023/08/22 13:06:44;;;;;;;6.35;3.95;;;;;;;-145.79;46.89;76836.81;5358073;27;20027;-71
2023/08/22 13:09:16;;;;;;;6.38;2.90;;;;;;;-145.79;46.62;76828.31;5356857;27;20019;-71
2023/08/22 13:11:47;;;;;;;6.57;2.72;;;;;;;-145.79;46.73;76826.22;5367732;27;20027;-71
2023/08/22 13:14:20;;;;;;;4.28;2.80;;;;;;;-145.79;46.69;76826.22;5367894;27;20026;-70
2023/08/22 13:16:51;;;;;;;5.93;3.25;;;;;;;-145.79;46.03;76836.81;5367947;27;20099;-72
2023/08/22 13:19:23;;;;;;;4.78;2.53;;;;;;;-145.79;46.25;76828.31;5358962;27;20022;-72
2023/08/22 13:22:01;;;;;;;4.28;2.47;;;;;;;-145.79;46.43;76807.13;5367462;27;20042;-74
2023/08/22 13:24:32;;;;;;;5.07;2.65;;;;;;;-145.79;46.24;76794.41;5360026;27;20097;-72
2023/08/22 13:27:04;;;;;;;4.65;2.58;;;;;;;-145.79;45.72;76788.06;5349831;27;20118;-72
2023/08/22 13:29:35;;;;;;;4.30;2.55;;;;;;;-145.79;45.23;76756.28;5361275;27;20026;-70
2023/08/22 13:32:07;;;;;;;12.45;10.68;;;;;;;-145.79;45.37;76758.38;5358181;27;20057;-72
2023/08/22 13:34:38;;;;;;;4.93;3.30;;;;;;;-145.79;45.53;76771.09;5366679;27;20030;-73
2023/08/22 13:37:10;;;;;;;6.72;2.83;;;;;;;-145.79;45.75;76766.88;5367763;27;20049;-72
2023/08/22 13:39:41;;;;;;;5.63;3.35;;;;;;;-145.79;45.19;76764.75;5368216;27;20114;-72
2023/08/22 13:42:12;;;;;;;6.85;2.70;;;;;;;-145.79;45.90;76760.50;5363459;27;20023;-72
2023/08/22 13:44:44;;;;;;;5.47;4.10;;;;;;;-145.79;46.19;76777.47;5368300;27;20027;-71
2023/08/22 13:47:15;;;;;;;4.45;2.30;;;;;;;-145.79;46.10;76766.88;5359142;27;20025;-73
2023/08/22 13:49:46;;;;;;;5.53;2.58;;;;;;;-145.79;45.98;76752.03;5366341;27;20054;-72
2023/08/22 13:52:18;;;;;;;6.60;2.20;;;;;;;-145.79;45.83;76749.91;5364050;27;20031;-72
2023/08/22 13:54:49;;;;;;;5.88;2.20;;;;;;;-145.79;45.70;76743.56;5362763;27;20031;-71
2023/08/22 13:57:21;;;;;;;8.15;2.53;;;;;;;-145.79;45.46;76739.31;5359109;27;20067;-73
2023/08/22 13:59:54;;;;;;;17.48;15.65;;;;;;;-145.79;45.63;76758.38;5363030;27;20038;-70
2023/08/22 14:02:25;;;;;;;6.40;3.20;;;;;;;-145.79;46.19;76754.16;5355506;27;20059;-71
2023/08/22 14:04:57;;;;;;;7.57;3.42;;;;;;;-145.79;46.29;76745.69;5358977;27;20092;-72
2023/08/22 14:07:29;;;;;;;4.20;2.80;;;;;;;-145.79;46.20;76737.19;5366101;27;20110;-70
2023/08/22 14:10:00;;;;;;;3.90;2.88;;;;;;;-145.79;45.22;76741.44;5358134;27;20659;-71
2023/08/22 14:12:32;;;;;;;5.63;2.78;;;;;;;-145.79;45.68;76749.91;5358487;27;20054;-75
2023/08/22 14:15:03;;;;;;;6.07;3.17;;;;;;;-145.79;45.96;76749.91;5354983;27;20474;-72
2023/08/22 14:17:35;;;;;;;6.32;3.00;;;;;;;-145.79;45.97;76754.16;5359294;27;20027;-73
2023/08/22 14:20:06;;;;;;;4.05;3.08;;;;;;;-145.79;46.42;76758.38;5367819;27;20018;-72
2023/08/22 14:22:39;;;;;;;4.88;2.65;;;;;;;-145.79;46.01;76747.78;5358179;27;20061;-73
2023/08/22 14:25:11;;;;;;;6.05;3.13;;;;;;;-145.79;46.25;76754.16;5367794;27;20019;-73
2023/08/22 14:27:44;;;;;;;4.25;2.90;;;;;;;-145.79;46.70;76758.38;5366916;27;20026;-72
2023/08/22 14:30:16;;;;;;;7.55;3.70;;;;;;;-145.79;47.05;76762.63;5363104;27;20023;-73
2023/08/22 14:32:47;;;;;;;6.30;3.22;;;;;;;-145.79;46.89;76754.16;5357417;27;20039;-70
2023/08/22 14:35:19;;;;;;;4.53;3.50;;;;;;;-145.79;46.74;76745.69;5367068;27;20089;-72
2023/08/22 14:37:50;;;;;;;5.53;3.47;;;;;;;-145.79;46.67;76745.69;5350412;27;20015;-73
2023/08/22 14:40:21;;;;;;;10.50;4.15;;;;;;;-145.79;46.83;76754.16;5362470;27;20127;-73
2023/08/22 14:42:53;;;;;;;5.55;4.10;;;;;;;-145.79;47.00;76743.56;5363158;27;20022;-72
2023/08/22 14:45:24;;;;;;;7.95;3.95;;;;;;;-145.79;47.53;76745.69;5367092;27;20015;-73
2023/08/22 14:47:56;;;;;;;5.57;3.75;;;;;;;-145.79;47.57;76735.06;5358308;27;20106;-75
2023/08/22 14:50:27;;;;;;;5.43;3.45;;;;;;;-145.79;47.63;76732.97;5355310;27;20141;-72
2023/08/22 14:52:58;;;;;;;5.82;3.97;;;;;;;-145.79;47.61;76737.19;5353198;27;20019;-71
2023/08/22 14:55:30;;;;;;;6.15;3.80;;;;;;;-145.79;47.70;76730.84;5364525;27;20023;-72
2023/08/22 14:58:02;;;;;;;11.35;7.43;;;;;;;-145.79;47.61;76735.06;5365757;27;20478;-72
2023/08/22 15:00:35;;;;;;;7.68;4.65;;;;;;;-145.79;47.35;76724.47;5359941;27;20488;-72
2023/08/22 15:03:06;;;;;;;5.22;4.43;;;;;;;-145.79;47.47;76730.84;5366936;27;20042;-73
2023/08/22 15:05:38;;;;;;;6.75;4.93;;;;;;;-145.79;47.04;76732.97;5355955;27;20027;-73
2023/08/22 15:08:09;;;;;;;8.20;5.60;;;;;;;-145.79;47.33;76735.06;5362496;27;20576;-73
2023/08/22 15:10:40;;;;;;;9.25;8.38;;;;;;;-145.79;47.53;76743.56;5365478;27;20023;-73
2023/08/22 15:13:11;;;;;;;4.45;3.72;;;;;;;-145.79;47.64;76724.47;5365836;27;20049;-73
2023/08/22 15:15:45;;;;;;;6.07;4.10;;;;;;;-145.79;47.96;76737.19;5364909;27;20027;-73
2023/08/22 15:18:17;;;;;;;8.07;3.80;;;;;;;-145.79;47.96;76718.13;5363004;27;20019;-73
2023/08/22 15:20:50;;;;;;;7.40;4.18;;;;;;;-145.79;48.04;76720.25;5364387;27;20031;-72
2023/08/22 15:23:22;;;;;;;10.93;7.75;;;;;;;-145.79;48.09;76707.53;5365774;27;20049;-71
2023/08/22 15:25:55;;;;;;;12.65;11.35;;;;;;;-145.79;47.66;76707.53;5357513;27;20393;-68
2023/08/22 15:28:26;;;;;;;9.50;6.78;;;;;;;-145.79;47.80;76720.25;5365615;27;20029;-71
2023/08/22 15:30:58;;;;;;;22.95;20.30;;;;;;;-145.79;47.73;76699.06;5357421;27;20026;-71
2023/08/22 15:33:29;;;;;;;11.77;10.52;;;;;;;-145.79;47.48;76716.00;5366393;27;20030;-71
2023/08/22 15:36:00;;;;;;;7.20;4.15;;;;;;;-145.79;47.64;76718.13;5356189;27;20055;-72
2023/08/22 15:38:34;;;;;;;7.78;3.60;;;;;;;-145.79;46.94;76709.66;5366434;27;20083;-73
2023/08/22 15:41:07;;;;;;;5.97;3.70;;;;;;;-145.79;46.41;76682.09;5357060;27;20031;-67
2023/08/22 15:43:39;;;;;;;5.53;4.10;;;;;;;-145.79;46.19;76688.44;5355582;27;20516;-66
2023/08/22 15:46:10;;;;;;;7.28;4.00;;;;;;;-145.79;46.78;76677.84;5358841;27;20038;-66
2023/08/22 15:48:41;;;;;;;5.97;4.35;;;;;;;-145.79;46.52;76713.88;5365736;27;20018;-71
2023/08/22 15:51:13;;;;;;;6.03;4.57;;;;;;;-145.79;46.69;76701.16;5361715;27;20034;-70
2023/08/22 15:53:44;;;;;;;6.70;4.40;;;;;;;-145.79;47.12;76711.75;5361432;27;20405;-69
2023/08/22 15:56:15;;;;;;;8.55;4.55;;;;;;;-145.79;47.30;76684.22;5360523;27;20023;-69
2023/08/22 15:58:47;;;;;;;6.82;4.55;;;;;;;-145.79;47.24;76692.69;5357422;27;20163;-70
2023/08/22 16:01:18;;;;;;;4.78;3.95;;;;;;;-145.79;46.57;76694.81;5357206;27;20031;-71
2023/08/22 16:03:49;;;;;;;6.15;3.83;;;;;;;-145.79;46.89;76694.81;5368366;27;20041;-69
2023/08/22 16:06:21;;;;;;;11.48;8.63;;;;;;;-145.79;46.06;76690.56;5368832;27;20382;-69
2023/08/22 16:08:52;;;;;;;5.35;2.85;;;;;;;-145.79;46.36;76686.34;5361428;27;20076;-69
2023/08/22 16:11:24;;;;;;;6.13;3.17;;;;;;;-145.79;45.77;76686.34;5361592;27;20079;-68
2023/08/22 16:13:55;;;;;;;7.53;3.53;;;;;;;-145.79;45.39;76682.09;5360503;27;20469;-69
2023/08/22 16:16:26;;;;;;;4.97;3.03;;;;;;;-145.79;45.64;76673.63;5360409;27;20023;-69
2023/08/22 16:19:00;;;;;;;5.15;3.65;;;;;;;-145.79;45.73;76660.91;5360792;27;20019;-69
2023/08/22 16:21:31;;;;;;;7.20;4.15;;;;;;;-145.79;45.92;76675.75;5360791;27;20030;-69
2023/08/22 16:24:03;;;;;;;5.35;3.38;;;;;;;-145.79;45.61;76682.09;5365437;27;20478;-68
2023/08/22 16:26:34;;;;;;;6.75;3.60;;;;;;;-145.79;45.94;76669.38;5356983;27;20054;-67
2023/08/22 16:29:07;;;;;;;5.53;3.30;;;;;;;-145.79;45.92;76690.56;5367371;27;20398;-69
2023/08/22 16:31:42;;;;;;;4.20;3.10;;;;;;;-145.79;46.25;76671.50;5369034;27;20037;-69
2023/08/22 16:34:14;;;;;;;6.23;3.10;;;;;;;-145.79;46.09;76656.66;5352212;27;20033;-69
2023/08/22 16:36:45;;;;;;;5.32;2.83;;;;;;;-145.79;45.23;76656.66;5361273;27;20161;-69
2023/08/22 16:39:17;;;;;;;3.83;2.40;;;;;;;-145.79;45.57;76627.00;5364021;27;20106;-67
2023/08/22 16:41:50;;;;;;;5.50;3.65;;;;;;;-145.79;45.66;76643.94;5361888;27;20039;-68
2023/08/22 16:44:21;;;;;;;40.20;36.85;;;;;;;-145.79;45.70;76624.88;5367170;27;20033;-67
2023/08/22 16:46:55;;;;;;;5.90;3.95;;;;;;;-145.79;45.82;76610.03;5361724;27;20102;-68
2023/08/22 16:49:27;;;;;;;6.10;4.20;;;;;;;-145.79;45.75;76648.19;5360432;27;20043;-68
2023/08/22 16:51:58;;;;;;;5.35;2.85;;;;;;;-145.79;46.06;76612.16;5359750;27;20334;-69
2023/08/22 16:54:35;;;;;;;6.50;3.22;;;;;;;-145.79;45.72;76605.81;5359112;27;20130;-68
